Accueil
METAR-TAF:

METAR-TAF

Aéroports :

Funafuti, Tuvalu

latitude: 08-31S, longitude: 179-13E, altitude: 1 m

Observation

Le bulletin a été fait il y a 31 minutes, à 22:00 UTC
Vent 4 kt de est
Température 32°C
Humidité 67%
Pression 1011 hPa
Visibilité 10 km ou plus
Quelques nuages à une hauteur de 2000 ft, Cumulus congestus.

METAR: NGFU 232200Z 08004KT 9999 FEW020TCU 32/25 Q1011

Heure: 10:31 (22:31 UTC)

Prévision

Le bulletin a été fait il y a 5 heures et 11 minutes, à 17:20 UTC
Prévision valable du 23 à 18 UTC au 24 à 18 UTC
Vent 8 kt de est
Visibilité 10 km ou plus
Quelques nuages à une hauteur de 2000 ft

TAF: NGFU 231720Z 2318/2418 08008KT 9999 FEW020

Observations et prévisions météorologiques de plus de 4000 aéroports (messages METAR et TAF).

Les stations disponibles sont représentées par des disques jaunes et rouges sur la carte.

Passer la souris dessus pour voir le nom de la station.

Cliquer dessus pour voir les observations et prévisions météorologiques.

Pour changer de carte: cliquez sur les boutons verts avec une croix noire pour zoomer, sur le bouton vert avec un tiret pour effectuer un zoom arrière, ou sur les flèches vertes pour les cartes adjacentes.


METAR-TAF: